sensor_id;sensor_type;location;lat;lon;timestamp;P1;durP1;ratioP1;P2;durP2;ratioP2
19278;SDS011;9773;47.062;15.446;2023-07-20T00:01:15;3.40;;;3.10;;
19278;SDS011;9773;47.062;15.446;2023-07-20T00:03:41;3.37;;;3.17;;
19278;SDS011;9773;47.062;15.446;2023-07-20T00:06:07;4.73;;;3.30;;
19278;SDS011;9773;47.062;15.446;2023-07-20T00:08:33;3.40;;;3.20;;
19278;SDS011;9773;47.062;15.446;2023-07-20T00:10:59;3.33;;;3.13;;
19278;SDS011;9773;47.062;15.446;2023-07-20T00:13:24;3.93;;;3.53;;
19278;SDS011;9773;47.062;15.446;2023-07-20T00:15:51;3.70;;;2.97;;
19278;SDS011;9773;47.062;15.446;2023-07-20T00:18:16;3.60;;;3.10;;
19278;SDS011;9773;47.062;15.446;2023-07-20T00:20:42;3.47;;;3.27;;
19278;SDS011;9773;47.062;15.446;2023-07-20T00:23:08;4.83;;;3.10;;
19278;SDS011;9773;47.062;15.446;2023-07-20T00:25:34;3.90;;;3.40;;
19278;SDS011;9773;47.062;15.446;2023-07-20T00:28:00;3.40;;;3.13;;
19278;SDS011;9773;47.062;15.446;2023-07-20T00:30:26;3.20;;;3.00;;
19278;SDS011;9773;47.062;15.446;2023-07-20T00:32:52;4.97;;;3.20;;
19278;SDS011;9773;47.062;15.446;2023-07-20T00:35:18;5.83;;;3.70;;
19278;SDS011;9773;47.062;15.446;2023-07-20T00:37:43;5.37;;;3.20;;
19278;SDS011;9773;47.062;15.446;2023-07-20T00:40:09;4.07;;;3.70;;
19278;SDS011;9773;47.062;15.446;2023-07-20T00:42:35;3.67;;;3.37;;
19278;SDS011;9773;47.062;15.446;2023-07-20T00:45:01;3.30;;;3.10;;
19278;SDS011;9773;47.062;15.446;2023-07-20T00:47:27;4.40;;;3.23;;
19278;SDS011;9773;47.062;15.446;2023-07-20T00:49:53;3.60;;;3.20;;
19278;SDS011;9773;47.062;15.446;2023-07-20T00:52:23;3.30;;;3.00;;
19278;SDS011;9773;47.062;15.446;2023-07-20T00:54:50;3.17;;;2.97;;
19278;SDS011;9773;47.062;15.446;2023-07-20T00:57:17;3.77;;;3.47;;
19278;SDS011;9773;47.062;15.446;2023-07-20T00:59:44;3.80;;;3.50;;
19278;SDS011;9773;47.062;15.446;2023-07-20T01:02:10;3.47;;;3.27;;
19278;SDS011;9773;47.062;15.446;2023-07-20T01:04:36;3.37;;;3.07;;
19278;SDS011;9773;47.062;15.446;2023-07-20T01:10:12;4.63;;;3.17;;
19278;SDS011;9773;47.062;15.446;2023-07-20T01:12:58;3.90;;;3.07;;
19278;SDS011;9773;47.062;15.446;2023-07-20T01:15:26;3.27;;;3.07;;
19278;SDS011;9773;47.062;15.446;2023-07-20T01:17:52;3.50;;;3.30;;
19278;SDS011;9773;47.062;15.446;2023-07-20T01:20:19;3.37;;;3.10;;
19278;SDS011;9773;47.062;15.446;2023-07-20T01:28:35;3.27;;;3.00;;
19278;SDS011;9773;47.062;15.446;2023-07-20T01:31:23;3.73;;;3.30;;
19278;SDS011;9773;47.062;15.446;2023-07-20T01:33:54;3.43;;;3.23;;
19278;SDS011;9773;47.062;15.446;2023-07-20T01:36:22;3.90;;;3.50;;
19278;SDS011;9773;47.062;15.446;2023-07-20T01:38:51;4.03;;;3.73;;
19278;SDS011;9773;47.062;15.446;2023-07-20T01:41:19;3.47;;;3.17;;
19278;SDS011;9773;47.062;15.446;2023-07-20T01:43:46;3.33;;;3.03;;
19278;SDS011;9773;47.062;15.446;2023-07-20T01:46:11;3.57;;;3.27;;
19278;SDS011;9773;47.062;15.446;2023-07-20T01:48:37;3.87;;;3.10;;
19278;SDS011;9773;47.062;15.446;2023-07-20T01:51:04;3.77;;;3.40;;
19278;SDS011;9773;47.062;15.446;2023-07-20T01:53:33;3.20;;;2.90;;
19278;SDS011;9773;47.062;15.446;2023-07-20T01:55:59;3.23;;;3.03;;
19278;SDS011;9773;47.062;15.446;2023-07-20T01:58:25;3.93;;;3.57;;
19278;SDS011;9773;47.062;15.446;2023-07-20T02:00:50;4.27;;;3.30;;
19278;SDS011;9773;47.062;15.446;2023-07-20T02:03:16;3.80;;;3.50;;
19278;SDS011;9773;47.062;15.446;2023-07-20T02:05:42;3.60;;;3.30;;
19278;SDS011;9773;47.062;15.446;2023-07-20T02:08:08;3.67;;;3.37;;
19278;SDS011;9773;47.062;15.446;2023-07-20T02:10:34;4.60;;;3.50;;
19278;SDS011;9773;47.062;15.446;2023-07-20T02:13:00;3.30;;;3.10;;
19278;SDS011;9773;47.062;15.446;2023-07-20T02:15:26;3.50;;;3.20;;
19278;SDS011;9773;47.062;15.446;2023-07-20T02:17:52;3.70;;;3.40;;
19278;SDS011;9773;47.062;15.446;2023-07-20T02:20:18;3.17;;;2.97;;
19278;SDS011;9773;47.062;15.446;2023-07-20T02:22:44;3.47;;;3.27;;
19278;SDS011;9773;47.062;15.446;2023-07-20T02:25:10;3.80;;;3.50;;
19278;SDS011;9773;47.062;15.446;2023-07-20T02:27:37;3.90;;;3.60;;
19278;SDS011;9773;47.062;15.446;2023-07-20T02:30:03;3.70;;;3.40;;
19278;SDS011;9773;47.062;15.446;2023-07-20T02:32:30;3.47;;;3.17;;
19278;SDS011;9773;47.062;15.446;2023-07-20T02:34:56;3.70;;;3.40;;
19278;SDS011;9773;47.062;15.446;2023-07-20T02:37:23;3.87;;;3.57;;
19278;SDS011;9773;47.062;15.446;2023-07-20T02:39:49;3.30;;;3.10;;
19278;SDS011;9773;47.062;15.446;2023-07-20T02:42:15;3.57;;;3.27;;
19278;SDS011;9773;47.062;15.446;2023-07-20T02:44:41;8.33;;;3.10;;
19278;SDS011;9773;47.062;15.446;2023-07-20T02:47:07;3.53;;;2.90;;
19278;SDS011;9773;47.062;15.446;2023-07-20T02:49:32;3.20;;;2.90;;
19278;SDS011;9773;47.062;15.446;2023-07-20T02:51:58;3.00;;;2.80;;
19278;SDS011;9773;47.062;15.446;2023-07-20T02:54:24;3.20;;;3.00;;
19278;SDS011;9773;47.062;15.446;2023-07-20T02:56:50;3.00;;;2.73;;
19278;SDS011;9773;47.062;15.446;2023-07-20T02:59:15;3.27;;;2.90;;
19278;SDS011;9773;47.062;15.446;2023-07-20T03:01:41;2.90;;;2.70;;
19278;SDS011;9773;47.062;15.446;2023-07-20T03:04:09;3.77;;;3.03;;
19278;SDS011;9773;47.062;15.446;2023-07-20T03:06:36;3.33;;;3.13;;
19278;SDS011;9773;47.062;15.446;2023-07-20T03:09:03;3.00;;;2.80;;
19278;SDS011;9773;47.062;15.446;2023-07-20T03:11:29;3.03;;;2.67;;
19278;SDS011;9773;47.062;15.446;2023-07-20T03:13:57;3.10;;;2.90;;
19278;SDS011;9773;47.062;15.446;2023-07-20T03:16:24;2.90;;;2.70;;
19278;SDS011;9773;47.062;15.446;2023-07-20T03:18:50;3.07;;;2.87;;
19278;SDS011;9773;47.062;15.446;2023-07-20T03:21:16;2.60;;;2.50;;
19278;SDS011;9773;47.062;15.446;2023-07-20T03:23:41;3.10;;;2.80;;
19278;SDS011;9773;47.062;15.446;2023-07-20T03:26:07;2.80;;;2.60;;
19278;SDS011;9773;47.062;15.446;2023-07-20T03:28:37;2.60;;;2.50;;
19278;SDS011;9773;47.062;15.446;2023-07-20T03:31:03;3.13;;;2.87;;
19278;SDS011;9773;47.062;15.446;2023-07-20T03:33:30;2.97;;;2.77;;
19278;SDS011;9773;47.062;15.446;2023-07-20T03:35:56;2.87;;;2.70;;
19278;SDS011;9773;47.062;15.446;2023-07-20T03:38:23;3.00;;;2.77;;
19278;SDS011;9773;47.062;15.446;2023-07-20T03:40:50;2.80;;;2.60;;
19278;SDS011;9773;47.062;15.446;2023-07-20T03:43:19;2.70;;;2.60;;
19278;SDS011;9773;47.062;15.446;2023-07-20T03:45:46;3.30;;;3.00;;
19278;SDS011;9773;47.062;15.446;2023-07-20T03:48:13;2.77;;;2.50;;
19278;SDS011;9773;47.062;15.446;2023-07-20T03:50:46;2.70;;;2.50;;
19278;SDS011;9773;47.062;15.446;2023-07-20T03:53:13;3.03;;;2.50;;
19278;SDS011;9773;47.062;15.446;2023-07-20T03:55:40;3.07;;;2.83;;
19278;SDS011;9773;47.062;15.446;2023-07-20T03:58:07;2.90;;;2.70;;
19278;SDS011;9773;47.062;15.446;2023-07-20T04:00:33;2.87;;;2.67;;
19278;SDS011;9773;47.062;15.446;2023-07-20T04:02:59;2.80;;;2.60;;
19278;SDS011;9773;47.062;15.446;2023-07-20T04:05:25;3.10;;;2.90;;
19278;SDS011;9773;47.062;15.446;2023-07-20T04:07:51;2.60;;;2.40;;
19278;SDS011;9773;47.062;15.446;2023-07-20T04:10:18;2.70;;;2.50;;
19278;SDS011;9773;47.062;15.446;2023-07-20T04:12:44;2.40;;;2.30;;
19278;SDS011;9773;47.062;15.446;2023-07-20T04:15:12;2.53;;;2.33;;
19278;SDS011;9773;47.062;15.446;2023-07-20T04:17:38;2.63;;;2.53;;
19278;SDS011;9773;47.062;15.446;2023-07-20T04:20:05;2.90;;;2.60;;
19278;SDS011;9773;47.062;15.446;2023-07-20T04:22:32;2.83;;;2.63;;
19278;SDS011;9773;47.062;15.446;2023-07-20T04:24:58;3.47;;;2.80;;
19278;SDS011;9773;47.062;15.446;2023-07-20T04:27:23;2.67;;;2.47;;
19278;SDS011;9773;47.062;15.446;2023-07-20T04:29:49;2.53;;;2.43;;
19278;SDS011;9773;47.062;15.446;2023-07-20T04:32:15;2.80;;;2.60;;
19278;SDS011;9773;47.062;15.446;2023-07-20T04:34:40;3.30;;;2.80;;
19278;SDS011;9773;47.062;15.446;2023-07-20T04:37:07;3.23;;;3.00;;
19278;SDS011;9773;47.062;15.446;2023-07-20T04:39:32;2.83;;;2.60;;
19278;SDS011;9773;47.062;15.446;2023-07-20T04:41:58;4.17;;;2.90;;
19278;SDS011;9773;47.062;15.446;2023-07-20T04:44:24;3.33;;;3.13;;
19278;SDS011;9773;47.062;15.446;2023-07-20T04:46:50;3.13;;;2.90;;
19278;SDS011;9773;47.062;15.446;2023-07-20T04:49:15;3.47;;;3.17;;
19278;SDS011;9773;47.062;15.446;2023-07-20T04:51:41;2.97;;;2.77;;
19278;SDS011;9773;47.062;15.446;2023-07-20T04:54:08;3.33;;;3.13;;
19278;SDS011;9773;47.062;15.446;2023-07-20T04:56:34;3.23;;;2.60;;
19278;SDS011;9773;47.062;15.446;2023-07-20T04:59:00;2.77;;;2.57;;
19278;SDS011;9773;47.062;15.446;2023-07-20T05:01:25;2.50;;;2.40;;
19278;SDS011;9773;47.062;15.446;2023-07-20T05:03:54;2.70;;;2.53;;
19278;SDS011;9773;47.062;15.446;2023-07-20T05:06:20;2.57;;;2.47;;
19278;SDS011;9773;47.062;15.446;2023-07-20T05:08:46;3.17;;;2.90;;
19278;SDS011;9773;47.062;15.446;2023-07-20T05:11:12;3.20;;;2.70;;
19278;SDS011;9773;47.062;15.446;2023-07-20T05:13:37;3.00;;;2.80;;
19278;SDS011;9773;47.062;15.446;2023-07-20T05:16:03;3.70;;;2.70;;
19278;SDS011;9773;47.062;15.446;2023-07-20T05:18:29;2.80;;;2.60;;
19278;SDS011;9773;47.062;15.446;2023-07-20T05:20:55;2.73;;;2.53;;
19278;SDS011;9773;47.062;15.446;2023-07-20T05:23:21;2.80;;;2.70;;
19278;SDS011;9773;47.062;15.446;2023-07-20T05:25:47;2.80;;;2.63;;
19278;SDS011;9773;47.062;15.446;2023-07-20T05:28:23;3.17;;;2.50;;
19278;SDS011;9773;47.062;15.446;2023-07-20T05:30:49;2.93;;;2.73;;
19278;SDS011;9773;47.062;15.446;2023-07-20T05:33:17;3.03;;;2.73;;
19278;SDS011;9773;47.062;15.446;2023-07-20T05:35:43;2.83;;;2.63;;
19278;SDS011;9773;47.062;15.446;2023-07-20T05:38:09;2.87;;;2.63;;
19278;SDS011;9773;47.062;15.446;2023-07-20T05:40:39;2.67;;;2.57;;
19278;SDS011;9773;47.062;15.446;2023-07-20T05:43:05;2.90;;;2.53;;
19278;SDS011;9773;47.062;15.446;2023-07-20T05:45:31;2.80;;;2.60;;
19278;SDS011;9773;47.062;15.446;2023-07-20T05:47:57;2.83;;;2.70;;
19278;SDS011;9773;47.062;15.446;2023-07-20T05:50:23;4.30;;;3.10;;
19278;SDS011;9773;47.062;15.446;2023-07-20T05:52:52;3.17;;;2.83;;
19278;SDS011;9773;47.062;15.446;2023-07-20T05:55:19;3.30;;;3.00;;
19278;SDS011;9773;47.062;15.446;2023-07-20T05:57:44;3.00;;;2.80;;
19278;SDS011;9773;47.062;15.446;2023-07-20T06:00:11;3.43;;;2.97;;
19278;SDS011;9773;47.062;15.446;2023-07-20T06:02:39;3.13;;;2.73;;
19278;SDS011;9773;47.062;15.446;2023-07-20T06:05:06;3.07;;;2.67;;
19278;SDS011;9773;47.062;15.446;2023-07-20T06:07:38;2.63;;;2.43;;
19278;SDS011;9773;47.062;15.446;2023-07-20T06:10:04;2.73;;;2.53;;
19278;SDS011;9773;47.062;15.446;2023-07-20T06:12:31;3.30;;;3.10;;
19278;SDS011;9773;47.062;15.446;2023-07-20T06:15:01;2.87;;;2.67;;
19278;SDS011;9773;47.062;15.446;2023-07-20T06:17:30;3.93;;;2.90;;
19278;SDS011;9773;47.062;15.446;2023-07-20T06:19:56;3.20;;;3.00;;
19278;SDS011;9773;47.062;15.446;2023-07-20T06:22:22;2.70;;;2.50;;
19278;SDS011;9773;47.062;15.446;2023-07-20T06:24:47;3.00;;;2.80;;
19278;SDS011;9773;47.062;15.446;2023-07-20T06:27:13;2.83;;;2.63;;
19278;SDS011;9773;47.062;15.446;2023-07-20T06:29:39;3.13;;;2.70;;
19278;SDS011;9773;47.062;15.446;2023-07-20T06:32:05;4.30;;;2.80;;
19278;SDS011;9773;47.062;15.446;2023-07-20T06:34:31;3.43;;;2.67;;
19278;SDS011;9773;47.062;15.446;2023-07-20T06:37:02;2.90;;;2.70;;
19278;SDS011;9773;47.062;15.446;2023-07-20T06:39:29;3.83;;;2.87;;
19278;SDS011;9773;47.062;15.446;2023-07-20T06:41:54;2.70;;;2.50;;
19278;SDS011;9773;47.062;15.446;2023-07-20T06:44:20;3.10;;;2.90;;
19278;SDS011;9773;47.062;15.446;2023-07-20T06:46:48;3.27;;;3.07;;
19278;SDS011;9773;47.062;15.446;2023-07-20T06:49:23;3.03;;;2.83;;
19278;SDS011;9773;47.062;15.446;2023-07-20T06:51:53;3.22;;;3.00;;
19278;SDS011;9773;47.062;15.446;2023-07-20T06:54:19;4.63;;;2.97;;
19278;SDS011;9773;47.062;15.446;2023-07-20T06:56:45;3.30;;;2.92;;
19278;SDS011;9773;47.062;15.446;2023-07-20T06:59:11;2.97;;;2.78;;
19278;SDS011;9773;47.062;15.446;2023-07-20T07:01:37;5.63;;;2.75;;
19278;SDS011;9773;47.062;15.446;2023-07-20T07:04:04;4.78;;;3.38;;
19278;SDS011;9773;47.062;15.446;2023-07-20T07:06:30;3.33;;;2.97;;
19278;SDS011;9773;47.062;15.446;2023-07-20T07:08:56;4.40;;;2.90;;
19278;SDS011;9773;47.062;15.446;2023-07-20T07:11:22;3.25;;;3.00;;
19278;SDS011;9773;47.062;15.446;2023-07-20T07:13:48;3.58;;;3.10;;
19278;SDS011;9773;47.062;15.446;2023-07-20T07:16:16;3.30;;;3.00;;
19278;SDS011;9773;47.062;15.446;2023-07-20T07:18:47;3.85;;;3.03;;
19278;SDS011;9773;47.062;15.446;2023-07-20T07:21:15;3.45;;;2.80;;
19278;SDS011;9773;47.062;15.446;2023-07-20T07:23:41;6.57;;;3.28;;
19278;SDS011;9773;47.062;15.446;2023-07-20T07:26:07;3.08;;;2.88;;
19278;SDS011;9773;47.062;15.446;2023-07-20T07:28:32;3.75;;;3.10;;
19278;SDS011;9773;47.062;15.446;2023-07-20T07:30:58;3.10;;;2.88;;
19278;SDS011;9773;47.062;15.446;2023-07-20T07:33:24;3.60;;;3.30;;
19278;SDS011;9773;47.062;15.446;2023-07-20T07:35:52;3.38;;;3.08;;
19278;SDS011;9773;47.062;15.446;2023-07-20T07:38:19;2.88;;;2.67;;
19278;SDS011;9773;47.062;15.446;2023-07-20T07:40:44;3.30;;;2.50;;
19278;SDS011;9773;47.062;15.446;2023-07-20T07:43:11;3.20;;;2.95;;
19278;SDS011;9773;47.062;15.446;2023-07-20T07:45:38;4.00;;;3.30;;
19278;SDS011;9773;47.062;15.446;2023-07-20T07:48:05;2.95;;;2.75;;
19278;SDS011;9773;47.062;15.446;2023-07-20T07:52:58;4.25;;;3.17;;
19278;SDS011;9773;47.062;15.446;2023-07-20T07:55:24;3.20;;;2.95;;
19278;SDS011;9773;47.062;15.446;2023-07-20T07:57:51;3.08;;;2.88;;
19278;SDS011;9773;47.062;15.446;2023-07-20T08:00:17;4.35;;;3.10;;
19278;SDS011;9773;47.062;15.446;2023-07-20T08:02:44;2.95;;;2.75;;
19278;SDS011;9773;47.062;15.446;2023-07-20T08:05:11;3.78;;;2.95;;
19278;SDS011;9773;47.062;15.446;2023-07-20T08:07:37;4.00;;;3.28;;
19278;SDS011;9773;47.062;15.446;2023-07-20T08:10:03;3.63;;;3.33;;
19278;SDS011;9773;47.062;15.446;2023-07-20T08:12:30;3.22;;;2.90;;
19278;SDS011;9773;47.062;15.446;2023-07-20T08:14:56;3.22;;;3.03;;
19278;SDS011;9773;47.062;15.446;2023-07-20T08:17:21;3.10;;;2.80;;
19278;SDS011;9773;47.062;15.446;2023-07-20T08:19:47;2.70;;;2.50;;
19278;SDS011;9773;47.062;15.446;2023-07-20T08:22:13;3.05;;;2.80;;
19278;SDS011;9773;47.062;15.446;2023-07-20T08:24:39;2.90;;;2.63;;
19278;SDS011;9773;47.062;15.446;2023-07-20T08:27:06;2.88;;;2.70;;
19278;SDS011;9773;47.062;15.446;2023-07-20T08:29:32;3.30;;;3.00;;
19278;SDS011;9773;47.062;15.446;2023-07-20T08:31:57;2.83;;;2.63;;
19278;SDS011;9773;47.062;15.446;2023-07-20T08:34:23;2.95;;;2.65;;
19278;SDS011;9773;47.062;15.446;2023-07-20T08:36:49;2.92;;;2.58;;
19278;SDS011;9773;47.062;15.446;2023-07-20T08:39:14;2.80;;;2.60;;
19278;SDS011;9773;47.062;15.446;2023-07-20T08:41:41;2.83;;;2.70;;
19278;SDS011;9773;47.062;15.446;2023-07-20T08:44:08;2.78;;;2.58;;
19278;SDS011;9773;47.062;15.446;2023-07-20T08:46:35;2.65;;;2.50;;
19278;SDS011;9773;47.062;15.446;2023-07-20T08:49:03;2.20;;;2.10;;
19278;SDS011;9773;47.062;15.446;2023-07-20T08:51:30;2.67;;;2.47;;
19278;SDS011;9773;47.062;15.446;2023-07-20T08:53:56;2.88;;;2.22;;
19278;SDS011;9773;47.062;15.446;2023-07-20T08:56:23;2.58;;;2.40;;
19278;SDS011;9773;47.062;15.446;2023-07-20T08:58:54;2.20;;;2.10;;
19278;SDS011;9773;47.062;15.446;2023-07-20T09:01:21;2.72;;;2.53;;
19278;SDS011;9773;47.062;15.446;2023-07-20T09:03:47;2.55;;;2.42;;
19278;SDS011;9773;47.062;15.446;2023-07-20T09:06:14;2.40;;;2.30;;
19278;SDS011;9773;47.062;15.446;2023-07-20T09:08:41;3.03;;;2.42;;
19278;SDS011;9773;47.062;15.446;2023-07-20T09:11:07;2.80;;;2.60;;
19278;SDS011;9773;47.062;15.446;2023-07-20T09:13:34;3.63;;;2.97;;
19278;SDS011;9773;47.062;15.446;2023-07-20T09:16:00;3.53;;;3.22;;
19278;SDS011;9773;47.062;15.446;2023-07-20T09:18:29;3.10;;;2.80;;
19278;SDS011;9773;47.062;15.446;2023-07-20T09:21:03;3.17;;;2.97;;
19278;SDS011;9773;47.062;15.446;2023-07-20T09:23:37;2.75;;;2.45;;
19278;SDS011;9773;47.062;15.446;2023-07-20T09:26:09;3.20;;;2.95;;
19278;SDS011;9773;47.062;15.446;2023-07-20T09:28:41;3.65;;;2.70;;
19278;SDS011;9773;47.062;15.446;2023-07-20T09:31:21;3.38;;;2.92;;
19278;SDS011;9773;47.062;15.446;2023-07-20T09:33:48;2.83;;;2.63;;
19278;SDS011;9773;47.062;15.446;2023-07-20T09:36:15;3.13;;;2.83;;
19278;SDS011;9773;47.062;15.446;2023-07-20T09:38:43;3.72;;;3.20;;
19278;SDS011;9773;47.062;15.446;2023-07-20T09:41:15;3.45;;;2.92;;
19278;SDS011;9773;47.062;15.446;2023-07-20T09:43:43;3.25;;;2.78;;
19278;SDS011;9773;47.062;15.446;2023-07-20T09:46:12;3.00;;;2.80;;
19278;SDS011;9773;47.062;15.446;2023-07-20T09:48:51;3.53;;;3.22;;
19278;SDS011;9773;47.062;15.446;2023-07-20T09:51:19;3.00;;;2.80;;
19278;SDS011;9773;47.062;15.446;2023-07-20T09:53:50;3.85;;;3.28;;
19278;SDS011;9773;47.062;15.446;2023-07-20T09:56:22;3.15;;;2.85;;
19278;SDS011;9773;47.062;15.446;2023-07-20T09:58:49;2.90;;;2.70;;
19278;SDS011;9773;47.062;15.446;2023-07-20T10:01:16;3.28;;;3.08;;
19278;SDS011;9773;47.062;15.446;2023-07-20T10:03:46;3.60;;;3.30;;
19278;SDS011;9773;47.062;15.446;2023-07-20T10:06:16;3.15;;;2.90;;
19278;SDS011;9773;47.062;15.446;2023-07-20T10:08:48;3.22;;;3.00;;
19278;SDS011;9773;47.062;15.446;2023-07-20T10:11:17;3.20;;;3.00;;
19278;SDS011;9773;47.062;15.446;2023-07-20T10:13:46;4.82;;;3.45;;
19278;SDS011;9773;47.062;15.446;2023-07-20T10:16:21;5.03;;;3.58;;
19278;SDS011;9773;47.062;15.446;2023-07-20T10:18:51;3.60;;;3.40;;
19278;SDS011;9773;47.062;15.446;2023-07-20T10:21:37;3.42;;;3.13;;
19278;SDS011;9773;47.062;15.446;2023-07-20T10:24:07;3.80;;;3.47;;
19278;SDS011;9773;47.062;15.446;2023-07-20T10:26:34;3.42;;;3.15;;
19278;SDS011;9773;47.062;15.446;2023-07-20T10:29:01;3.75;;;3.40;;
19278;SDS011;9773;47.062;15.446;2023-07-20T10:31:28;3.83;;;3.53;;
19278;SDS011;9773;47.062;15.446;2023-07-20T10:33:56;3.72;;;3.35;;
19278;SDS011;9773;47.062;15.446;2023-07-20T10:36:26;3.00;;;2.80;;
19278;SDS011;9773;47.062;15.446;2023-07-20T10:38:53;3.58;;;3.30;;
19278;SDS011;9773;47.062;15.446;2023-07-20T10:41:35;2.97;;;2.78;;
19278;SDS011;9773;47.062;15.446;2023-07-20T10:44:06;3.92;;;2.83;;
19278;SDS011;9773;47.062;15.446;2023-07-20T10:46:42;3.08;;;2.88;;
19278;SDS011;9773;47.062;15.446;2023-07-20T10:49:12;4.43;;;3.20;;
19278;SDS011;9773;47.062;15.446;2023-07-20T10:51:40;4.15;;;3.40;;
19278;SDS011;9773;47.062;15.446;2023-07-20T10:56:43;2.60;;;2.50;;
19278;SDS011;9773;47.062;15.446;2023-07-20T10:59:19;3.58;;;3.10;;
19278;SDS011;9773;47.062;15.446;2023-07-20T11:02:02;2.58;;;2.47;;
19278;SDS011;9773;47.062;15.446;2023-07-20T11:04:40;3.08;;;2.70;;
19278;SDS011;9773;47.062;15.446;2023-07-20T11:07:08;3.25;;;2.55;;
19278;SDS011;9773;47.062;15.446;2023-07-20T11:09:34;3.67;;;3.38;;
19278;SDS011;9773;47.062;15.446;2023-07-20T11:12:11;3.00;;;2.80;;
19278;SDS011;9773;47.062;15.446;2023-07-20T11:14:54;3.28;;;3.08;;
19278;SDS011;9773;47.062;15.446;2023-07-20T11:17:22;2.83;;;2.72;;
19278;SDS011;9773;47.062;15.446;2023-07-20T11:19:56;2.80;;;2.45;;
19278;SDS011;9773;47.062;15.446;2023-07-20T11:22:23;2.60;;;2.50;;
19278;SDS011;9773;47.062;15.446;2023-07-20T11:24:49;2.75;;;2.55;;
19278;SDS011;9773;47.062;15.446;2023-07-20T11:27:16;3.80;;;2.60;;
19278;SDS011;9773;47.062;15.446;2023-07-20T11:29:45;3.30;;;3.00;;
19278;SDS011;9773;47.062;15.446;2023-07-20T11:32:10;2.88;;;2.67;;
19278;SDS011;9773;47.062;15.446;2023-07-20T11:34:36;3.83;;;2.80;;
19278;SDS011;9773;47.062;15.446;2023-07-20T11:37:02;3.10;;;2.90;;
19278;SDS011;9773;47.062;15.446;2023-07-20T11:39:29;2.80;;;2.60;;
19278;SDS011;9773;47.062;15.446;2023-07-20T11:41:55;2.65;;;2.55;;
19278;SDS011;9773;47.062;15.446;2023-07-20T11:44:22;2.80;;;2.55;;
19278;SDS011;9773;47.062;15.446;2023-07-20T11:47:09;3.42;;;2.17;;
19278;SDS011;9773;47.062;15.446;2023-07-20T11:49:39;3.40;;;2.28;;
19278;SDS011;9773;47.062;15.446;2023-07-20T11:52:06;14.07;;;3.63;;
19278;SDS011;9773;47.062;15.446;2023-07-20T11:54:34;2.45;;;2.30;;
19278;SDS011;9773;47.062;15.446;2023-07-20T11:57:04;2.60;;;2.50;;
19278;SDS011;9773;47.062;15.446;2023-07-20T11:59:30;2.72;;;2.60;;
19278;SDS011;9773;47.062;15.446;2023-07-20T12:01:57;2.60;;;2.30;;
19278;SDS011;9773;47.062;15.446;2023-07-20T12:04:29;2.53;;;2.42;;
19278;SDS011;9773;47.062;15.446;2023-07-20T12:06:58;2.72;;;2.53;;
19278;SDS011;9773;47.062;15.446;2023-07-20T12:09:24;2.92;;;2.70;;
19278;SDS011;9773;47.062;15.446;2023-07-20T12:11:50;2.20;;;2.10;;
19278;SDS011;9773;47.062;15.446;2023-07-20T12:14:16;2.50;;;2.40;;
19278;SDS011;9773;47.062;15.446;2023-07-20T12:16:42;3.20;;;3.00;;
19278;SDS011;9773;47.062;15.446;2023-07-20T12:19:09;2.72;;;2.63;;
19278;SDS011;9773;47.062;15.446;2023-07-20T12:21:39;2.47;;;2.38;;
19278;SDS011;9773;47.062;15.446;2023-07-20T12:24:07;2.53;;;2.42;;
19278;SDS011;9773;47.062;15.446;2023-07-20T12:26:36;3.42;;;2.63;;
19278;SDS011;9773;47.062;15.446;2023-07-20T12:29:02;2.25;;;2.05;;
19278;SDS011;9773;47.062;15.446;2023-07-20T12:31:29;2.13;;;2.00;;
19278;SDS011;9773;47.062;15.446;2023-07-20T12:33:56;4.40;;;2.38;;
19278;SDS011;9773;47.062;15.446;2023-07-20T12:36:22;2.30;;;2.20;;
19278;SDS011;9773;47.062;15.446;2023-07-20T12:38:48;2.80;;;2.60;;
19278;SDS011;9773;47.062;15.446;2023-07-20T12:41:14;2.55;;;2.35;;
19278;SDS011;9773;47.062;15.446;2023-07-20T12:43:44;2.95;;;2.40;;
19278;SDS011;9773;47.062;15.446;2023-07-20T12:46:10;2.65;;;2.47;;
19278;SDS011;9773;47.062;15.446;2023-07-20T12:48:39;2.45;;;2.25;;
19278;SDS011;9773;47.062;15.446;2023-07-20T12:51:07;2.67;;;2.58;;
19278;SDS011;9773;47.062;15.446;2023-07-20T12:53:34;2.60;;;2.40;;
19278;SDS011;9773;47.062;15.446;2023-07-20T12:56:00;3.97;;;2.45;;
19278;SDS011;9773;47.062;15.446;2023-07-20T12:58:26;2.40;;;2.20;;
19278;SDS011;9773;47.062;15.446;2023-07-20T13:00:52;3.97;;;2.78;;
19278;SDS011;9773;47.062;15.446;2023-07-20T13:03:18;2.35;;;2.20;;
19278;SDS011;9773;47.062;15.446;2023-07-20T13:05:45;2.50;;;2.40;;
19278;SDS011;9773;47.062;15.446;2023-07-20T13:08:11;3.92;;;2.83;;
19278;SDS011;9773;47.062;15.446;2023-07-20T13:10:37;2.28;;;2.17;;
19278;SDS011;9773;47.062;15.446;2023-07-20T13:13:06;2.33;;;2.20;;
19278;SDS011;9773;47.062;15.446;2023-07-20T13:15:32;2.17;;;1.77;;
19278;SDS011;9773;47.062;15.446;2023-07-20T13:18:06;2.40;;;2.30;;
19278;SDS011;9773;47.062;15.446;2023-07-20T13:20:32;2.13;;;1.85;;
19278;SDS011;9773;47.062;15.446;2023-07-20T13:22:58;2.47;;;2.13;;
19278;SDS011;9773;47.062;15.446;2023-07-20T13:25:24;2.05;;;1.90;;
19278;SDS011;9773;47.062;15.446;2023-07-20T13:27:50;1.98;;;1.88;;
19278;SDS011;9773;47.062;15.446;2023-07-20T13:30:16;2.08;;;1.98;;
19278;SDS011;9773;47.062;15.446;2023-07-20T13:32:44;2.30;;;2.15;;
19278;SDS011;9773;47.062;15.446;2023-07-20T13:35:13;2.03;;;1.67;;
19278;SDS011;9773;47.062;15.446;2023-07-20T13:37:39;2.47;;;1.95;;
19278;SDS011;9773;47.062;15.446;2023-07-20T13:40:06;2.25;;;2.10;;
19278;SDS011;9773;47.062;15.446;2023-07-20T13:42:38;2.60;;;1.80;;
19278;SDS011;9773;47.062;15.446;2023-07-20T13:45:05;2.20;;;2.03;;
19278;SDS011;9773;47.062;15.446;2023-07-20T13:47:32;1.90;;;1.80;;
19278;SDS011;9773;47.062;15.446;2023-07-20T13:49:57;2.00;;;1.90;;
19278;SDS011;9773;47.062;15.446;2023-07-20T13:52:23;2.35;;;2.25;;
19278;SDS011;9773;47.062;15.446;2023-07-20T13:54:49;2.17;;;1.90;;
19278;SDS011;9773;47.062;15.446;2023-07-20T13:57:15;2.20;;;2.10;;
19278;SDS011;9773;47.062;15.446;2023-07-20T13:59:40;2.10;;;1.90;;
19278;SDS011;9773;47.062;15.446;2023-07-20T14:02:06;2.60;;;2.40;;
19278;SDS011;9773;47.062;15.446;2023-07-20T14:04:32;2.28;;;2.17;;
19278;SDS011;9773;47.062;15.446;2023-07-20T14:06:58;2.15;;;2.05;;
19278;SDS011;9773;47.062;15.446;2023-07-20T14:09:24;2.47;;;2.28;;
19278;SDS011;9773;47.062;15.446;2023-07-20T14:11:49;2.47;;;2.38;;
19278;SDS011;9773;47.062;15.446;2023-07-20T14:14:15;2.13;;;2.03;;
19278;SDS011;9773;47.062;15.446;2023-07-20T14:16:41;2.35;;;2.20;;
19278;SDS011;9773;47.062;15.446;2023-07-20T14:19:06;2.20;;;2.10;;
19278;SDS011;9773;47.062;15.446;2023-07-20T14:21:32;2.20;;;2.10;;
19278;SDS011;9773;47.062;15.446;2023-07-20T14:23:58;2.33;;;2.22;;
19278;SDS011;9773;47.062;15.446;2023-07-20T14:26:24;2.30;;;2.20;;
19278;SDS011;9773;47.062;15.446;2023-07-20T14:28:50;2.90;;;2.70;;
19278;SDS011;9773;47.062;15.446;2023-07-20T14:31:16;3.53;;;2.30;;
19278;SDS011;9773;47.062;15.446;2023-07-20T14:33:41;2.67;;;2.40;;
19278;SDS011;9773;47.062;15.446;2023-07-20T14:36:07;2.55;;;2.42;;
19278;SDS011;9773;47.062;15.446;2023-07-20T14:38:33;2.75;;;2.30;;
19278;SDS011;9773;47.062;15.446;2023-07-20T14:41:00;2.45;;;2.35;;
19278;SDS011;9773;47.062;15.446;2023-07-20T14:43:26;2.47;;;2.28;;
19278;SDS011;9773;47.062;15.446;2023-07-20T14:45:51;2.53;;;2.40;;
19278;SDS011;9773;47.062;15.446;2023-07-20T14:48:17;2.47;;;2.38;;
19278;SDS011;9773;47.062;15.446;2023-07-20T14:50:43;4.47;;;2.80;;
19278;SDS011;9773;47.062;15.446;2023-07-20T14:53:12;2.80;;;2.60;;
19278;SDS011;9773;47.062;15.446;2023-07-20T14:55:39;2.70;;;2.50;;
19278;SDS011;9773;47.062;15.446;2023-07-20T14:58:05;2.65;;;2.45;;
19278;SDS011;9773;47.062;15.446;2023-07-20T15:00:31;3.25;;;2.67;;
19278;SDS011;9773;47.062;15.446;2023-07-20T15:02:56;2.53;;;2.42;;